Time;durP1;ratioP1;P1;durP2;ratioP2;P2;SDS_P1;SDS_P2;PMS_P1;PMS_P2;Temp;Humidity;BMP_temperature;BMP_pressure;BME280_temperature;BME280_humidity;BME280_pressure;Samples;Min_cycle;Max_cycle;Signal;HPM_P1;HPM_P2
2022/08/29 00:00:00;;;;;;;18.55;6.60;;;;;;;;;;4955663;29;20122;-72
2022/08/29 00:02:26;;;;;;;13.02;6.72;;;;;;;;;;4955655;28;20035;-73
2022/08/29 00:04:52;;;;;;;12.98;6.28;;;;;;;;;;4953645;28;20039;-71
2022/08/29 00:07:18;;;;;;;18.73;7.32;;;;;;;;;;4939153;29;20035;-71
2022/08/29 00:09:44;;;;;;;27.95;7.47;;;;;;;;;;4956157;29;20043;-71
2022/08/29 00:12:10;;;;;;;18.52;7.63;;;;;;;;;;4938713;29;20031;-73
2022/08/29 00:14:36;;;;;;;13.90;6.00;;;;;;;;;;4955478;29;20090;-74
2022/08/29 00:17:02;;;;;;;14.93;6.07;;;;;;;;;;4955383;29;20386;-74
2022/08/29 00:19:28;;;;;;;10.55;5.78;;;;;;;;;;4955431;29;20037;-72
2022/08/29 00:21:54;;;;;;;10.30;5.28;;;;;;;;;;4955456;28;20076;-73
2022/08/29 00:24:20;;;;;;;8.32;5.95;;;;;;;;;;4955309;29;20028;-73
2022/08/29 00:26:46;;;;;;;16.92;6.65;;;;;;;;;;4955474;29;20041;-73
2022/08/29 00:29:12;;;;;;;16.42;6.72;;;;;;;;;;4938342;29;20031;-72
2022/08/29 00:31:38;;;;;;;13.85;7.05;;;;;;;;;;4954925;28;20050;-72
2022/08/29 00:34:03;;;;;;;17.58;6.40;;;;;;;;;;4955198;29;20390;-73
2022/08/29 00:36:29;;;;;;;12.73;6.20;;;;;;;;;;4955182;29;20042;-74
2022/08/29 00:38:55;;;;;;;9.30;5.47;;;;;;;;;;4954583;29;20050;-73
2022/08/29 00:41:21;;;;;;;9.93;5.35;;;;;;;;;;4954699;29;20031;-73
2022/08/29 00:43:47;;;;;;;10.73;5.45;;;;;;;;;;4954914;29;20777;-72
2022/08/29 00:46:31;;;;;;;11.88;6.40;;;;;;;;;;4953799;28;20019;-73
2022/08/29 00:49:11;;;;;;;14.25;6.10;;;;;;;;;;4955252;29;20038;-73
2022/08/29 00:51:38;;;;;;;12.90;5.50;;;;;;;;;;4955113;29;20035;-74
2022/08/29 00:54:08;;;;;;;12.70;5.10;;;;;;;;;;4955067;29;20099;-71
2022/08/29 00:56:36;;;;;;;11.35;5.60;;;;;;;;;;4954939;29;20561;-73
2022/08/29 00:59:07;;;;;;;13.57;5.88;;;;;;;;;;4954773;29;20042;-73
2022/08/29 01:01:34;;;;;;;12.65;6.00;;;;;;;;;;4954731;29;20491;-72
2022/08/29 01:03:59;;;;;;;9.13;5.22;;;;;;;;;;4937684;29;20030;-73
2022/08/29 01:06:27;;;;;;;11.15;6.43;;;;;;;;;;4954744;29;20031;-73
2022/08/29 01:08:54;;;;;;;10.25;6.53;;;;;;;;;;4954566;29;20561;-74
2022/08/29 01:14:06;;;;;;;11.27;5.97;;;;;;;;;;4954650;29;20486;-73
2022/08/29 01:16:32;;;;;;;9.45;5.60;;;;;;;;;;4954590;29;20486;-73
2022/08/29 01:19:22;;;;;;;14.02;6.38;;;;;;;;;;4954214;29;20039;-73
2022/08/29 01:22:09;;;;;;;15.30;6.18;;;;;;;;;;4954247;29;20043;-73
2022/08/29 01:24:44;;;;;;;12.40;5.57;;;;;;;;;;4954085;29;20167;-73
2022/08/29 01:27:13;;;;;;;13.63;6.00;;;;;;;;;;4936875;29;20035;-73
2022/08/29 01:29:40;;;;;;;11.32;5.65;;;;;;;;;;4937210;29;20035;-73
2022/08/29 01:32:06;;;;;;;13.00;5.85;;;;;;;;;;4954223;29;20042;-73
2022/08/29 01:34:32;;;;;;;16.77;5.70;;;;;;;;;;4954078;29;20035;-73
2022/08/29 01:37:05;;;;;;;8.82;5.88;;;;;;;;;;4954050;29;20031;-73
2022/08/29 01:39:34;;;;;;;12.70;6.03;;;;;;;;;;4953731;29;20037;-73
2022/08/29 01:42:21;;;;;;;11.55;5.78;;;;;;;;;;4953841;29;20112;-71
2022/08/29 01:44:50;;;;;;;9.10;5.78;;;;;;;;;;4954057;29;20039;-72
2022/08/29 01:47:16;;;;;;;12.15;5.55;;;;;;;;;;4953952;29;20031;-73
2022/08/29 01:49:42;;;;;;;10.63;5.55;;;;;;;;;;4954188;29;20027;-73
2022/08/29 01:52:08;;;;;;;12.40;5.80;;;;;;;;;;4953641;29;20427;-72
2022/08/29 01:54:34;;;;;;;12.30;5.85;;;;;;;;;;4954125;29;20027;-73
2022/08/29 01:57:00;;;;;;;9.80;5.60;;;;;;;;;;4953529;28;20035;-73
2022/08/29 01:59:29;;;;;;;15.05;6.30;;;;;;;;;;4953459;29;20027;-72
2022/08/29 02:02:15;;;;;;;14.65;6.32;;;;;;;;;;4953623;29;20509;-72
2022/08/29 02:04:42;;;;;;;13.68;6.32;;;;;;;;;;4953916;29;20067;-73
2022/08/29 02:07:08;;;;;;;13.02;6.60;;;;;;;;;;4953844;29;20078;-72
2022/08/29 02:09:34;;;;;;;12.52;6.30;;;;;;;;;;4953866;29;20491;-72
2022/08/29 02:12:03;;;;;;;16.95;7.10;;;;;;;;;;4952758;29;20021;-73
2022/08/29 02:14:29;;;;;;;11.40;6.50;;;;;;;;;;4953777;29;20031;-73
2022/08/29 02:16:55;;;;;;;13.75;6.38;;;;;;;;;;4953687;29;20475;-72
2022/08/29 02:19:22;;;;;;;16.00;8.45;;;;;;;;;;4953234;29;20050;-73
2022/08/29 02:21:49;;;;;;;14.18;8.63;;;;;;;;;;4953509;29;20031;-74
2022/08/29 02:24:16;;;;;;;12.82;7.53;;;;;;;;;;4953661;29;20042;-74
2022/08/29 02:26:43;;;;;;;18.23;7.57;;;;;;;;;;4962301;28;20023;-73
2022/08/29 02:29:11;;;;;;;15.18;6.90;;;;;;;;;;4971842;28;20589;-73
2022/08/29 02:31:39;;;;;;;15.60;7.32;;;;;;;;;;4971980;28;20030;-73
2022/08/29 02:34:06;;;;;;;17.48;6.72;;;;;;;;;;4971783;28;20121;-74
2022/08/29 02:36:32;;;;;;;13.57;6.78;;;;;;;;;;4971732;28;20031;-73
2022/08/29 02:38:58;;;;;;;15.18;6.00;;;;;;;;;;4971875;28;20426;-72
2022/08/29 02:41:24;;;;;;;14.35;5.82;;;;;;;;;;4971834;28;20461;-73
2022/08/29 02:43:49;;;;;;;11.52;6.28;;;;;;;;;;4972979;28;20393;-73
2022/08/29 02:46:17;;;;;;;14.70;6.38;;;;;;;;;;4972493;28;20045;-73
2022/08/29 02:48:44;;;;;;;17.38;6.15;;;;;;;;;;4973771;28;20098;-73
2022/08/29 02:51:17;;;;;;;10.05;5.93;;;;;;;;;;4972477;28;20049;-73
2022/08/29 02:53:43;;;;;;;12.57;6.25;;;;;;;;;;4952142;28;20042;-73
2022/08/29 02:56:09;;;;;;;9.90;5.70;;;;;;;;;;4953183;29;20054;-73
2022/08/29 02:58:35;;;;;;;14.18;5.40;;;;;;;;;;4953307;29;20509;-74
2022/08/29 03:01:00;;;;;;;10.73;5.22;;;;;;;;;;4953309;29;20039;-72
2022/08/29 03:03:26;;;;;;;8.13;5.35;;;;;;;;;;4953129;28;20379;-73
2022/08/29 03:05:53;;;;;;;12.82;5.68;;;;;;;;;;4953082;29;20074;-73
2022/08/29 03:08:19;;;;;;;11.73;5.85;;;;;;;;;;4953102;28;20035;-73
2022/08/29 03:10:45;;;;;;;11.65;5.95;;;;;;;;;;4956332;29;20038;-74
2022/08/29 03:13:12;;;;;;;12.23;5.78;;;;;;;;;;4956565;28;20019;-73
2022/08/29 03:15:39;;;;;;;14.68;6.13;;;;;;;;;;4955857;29;20062;-73
2022/08/29 03:18:04;;;;;;;11.73;6.45;;;;;;;;;;4956547;29;20022;-73
2022/08/29 03:20:33;;;;;;;13.75;6.20;;;;;;;;;;4956402;29;20039;-73
2022/08/29 03:22:59;;;;;;;13.75;5.60;;;;;;;;;;4951247;29;20023;-72
2022/08/29 03:25:25;;;;;;;7.68;5.20;;;;;;;;;;4956116;29;20397;-73
2022/08/29 03:27:51;;;;;;;13.35;5.20;;;;;;;;;;4956303;29;20046;-73
2022/08/29 03:30:19;;;;;;;21.75;7.10;;;;;;;;;;4956598;29;20015;-73
2022/08/29 03:32:45;;;;;;;15.80;5.97;;;;;;;;;;4956633;29;20055;-73
2022/08/29 03:35:12;;;;;;;15.38;5.47;;;;;;;;;;4956108;29;20023;-73
2022/08/29 03:37:39;;;;;;;10.75;5.70;;;;;;;;;;4956170;29;20034;-73
2022/08/29 03:40:07;;;;;;;18.98;6.30;;;;;;;;;;4955545;29;20102;-73
2022/08/29 03:42:34;;;;;;;14.93;6.05;;;;;;;;;;4955127;28;20035;-73
2022/08/29 03:45:05;;;;;;;15.50;7.32;;;;;;;;;;4938724;29;20039;-73
2022/08/29 03:47:31;;;;;;;12.05;6.60;;;;;;;;;;4955872;29;20494;-73
2022/08/29 03:49:56;;;;;;;12.23;6.10;;;;;;;;;;4955940;29;20043;-73
2022/08/29 03:52:22;;;;;;;23.63;6.43;;;;;;;;;;4955810;29;20529;-73
2022/08/29 03:54:48;;;;;;;13.10;5.95;;;;;;;;;;4967642;28;20027;-73
2022/08/29 03:57:14;;;;;;;17.02;8.77;;;;;;;;;;4954795;28;20047;-73
2022/08/29 03:59:41;;;;;;;12.10;6.25;;;;;;;;;;4954726;29;20038;-73
2022/08/29 04:02:08;;;;;;;10.52;5.82;;;;;;;;;;4954444;29;20114;-73
2022/08/29 04:07:18;;;;;;;11.13;5.72;;;;;;;;;;4954340;29;20039;-73
2022/08/29 04:09:44;;;;;;;12.85;6.10;;;;;;;;;;4954611;29;20046;-73
2022/08/29 04:12:12;;;;;;;13.00;5.70;;;;;;;;;;4954194;29;20126;-73
2022/08/29 04:14:39;;;;;;;10.40;6.07;;;;;;;;;;4952777;29;20043;-74
2022/08/29 04:17:07;;;;;;;13.02;6.55;;;;;;;;;;4955977;29;20483;-73
2022/08/29 04:19:34;;;;;;;34.65;7.20;;;;;;;;;;4955995;28;20045;-73
2022/08/29 04:22:00;;;;;;;20.80;6.80;;;;;;;;;;4956247;28;20023;-74
2022/08/29 04:24:26;;;;;;;18.80;6.97;;;;;;;;;;4956401;29;20052;-74
2022/08/29 04:26:51;;;;;;;16.85;6.13;;;;;;;;;;4955317;29;20615;-74
2022/08/29 04:29:17;;;;;;;15.82;6.53;;;;;;;;;;4956220;29;20127;-74
2022/08/29 04:31:43;;;;;;;13.45;6.20;;;;;;;;;;4954656;29;20097;-73
2022/08/29 04:34:11;;;;;;;17.77;7.18;;;;;;;;;;4956083;29;20378;-74
2022/08/29 04:36:40;;;;;;;25.50;7.30;;;;;;;;;;4955036;29;20489;-74
2022/08/29 04:39:08;;;;;;;22.02;7.65;;;;;;;;;;4955450;29;20046;-72
2022/08/29 04:41:34;;;;;;;13.75;6.28;;;;;;;;;;4952444;28;20043;-73
2022/08/29 04:44:01;;;;;;;11.60;6.13;;;;;;;;;;4955406;29;20038;-74
2022/08/29 04:46:27;;;;;;;14.50;7.00;;;;;;;;;;4955418;28;20059;-73
2022/08/29 04:48:53;;;;;;;23.33;7.00;;;;;;;;;;4955353;29;20479;-74
2022/08/29 04:51:20;;;;;;;19.63;7.40;;;;;;;;;;4955360;28;20033;-73
2022/08/29 04:53:47;;;;;;;18.27;7.18;;;;;;;;;;4954997;29;20039;-74
2022/08/29 04:56:13;;;;;;;14.27;6.15;;;;;;;;;;4954833;29;20094;-72
2022/08/29 04:58:41;;;;;;;25.70;7.88;;;;;;;;;;4954251;28;20039;-73
2022/08/29 05:01:07;;;;;;;14.82;6.13;;;;;;;;;;4955288;29;20198;-74
2022/08/29 05:03:33;;;;;;;13.65;6.93;;;;;;;;;;4962876;28;20397;-73
2022/08/29 05:06:02;;;;;;;12.18;6.22;;;;;;;;;;4955285;29;20019;-73
2022/08/29 05:08:28;;;;;;;13.55;5.72;;;;;;;;;;4955173;29;20111;-73
2022/08/29 05:10:55;;;;;;;12.60;5.82;;;;;;;;;;4954495;28;20040;-73
2022/08/29 05:13:22;;;;;;;22.08;6.50;;;;;;;;;;4954982;28;20038;-74
2022/08/29 05:15:49;;;;;;;9.98;5.90;;;;;;;;;;4954298;29;20039;-73
2022/08/29 05:18:19;;;;;;;15.70;6.65;;;;;;;;;;4954769;29;20397;-73
2022/08/29 05:20:47;;;;;;;22.98;6.80;;;;;;;;;;4953710;29;20042;-74
2022/08/29 05:23:16;;;;;;;17.48;7.22;;;;;;;;;;4961195;28;20038;-73
2022/08/29 05:25:43;;;;;;;12.57;7.18;;;;;;;;;;4974099;28;20080;-73
2022/08/29 05:28:10;;;;;;;27.25;8.18;;;;;;;;;;4974307;28;20027;-73
2022/08/29 05:30:39;;;;;;;23.63;8.00;;;;;;;;;;4972684;28;20046;-73
2022/08/29 05:33:07;;;;;;;19.10;7.95;;;;;;;;;;4973608;28;20062;-73
2022/08/29 05:35:34;;;;;;;18.20;8.70;;;;;;;;;;4973566;28;20470;-74
2022/08/29 05:38:03;;;;;;;17.92;7.43;;;;;;;;;;4973946;28;20082;-74
2022/08/29 05:40:29;;;;;;;16.83;7.50;;;;;;;;;;4973870;28;20041;-75
2022/08/29 05:42:54;;;;;;;15.30;8.68;;;;;;;;;;4970443;28;20346;-74
2022/08/29 05:45:20;;;;;;;15.98;8.38;;;;;;;;;;4952595;29;20026;-74
2022/08/29 05:47:46;;;;;;;16.25;8.65;;;;;;;;;;4953421;29;20094;-74
2022/08/29 05:50:15;;;;;;;16.42;7.43;;;;;;;;;;4953308;29;20475;-74
2022/08/29 05:52:42;;;;;;;21.40;8.30;;;;;;;;;;4954194;29;20034;-74
2022/08/29 05:55:08;;;;;;;24.75;8.45;;;;;;;;;;4937273;29;20059;-74
2022/08/29 05:57:34;;;;;;;18.42;7.93;;;;;;;;;;4954153;29;20504;-74
2022/08/29 06:00:00;;;;;;;20.95;8.82;;;;;;;;;;4954893;29;20178;-76
2022/08/29 06:02:26;;;;;;;17.70;7.35;;;;;;;;;;4954743;29;20238;-75
2022/08/29 06:04:52;;;;;;;19.52;7.97;;;;;;;;;;4954712;29;20043;-75
2022/08/29 06:07:18;;;;;;;20.55;8.52;;;;;;;;;;4954333;29;20513;-74
2022/08/29 06:09:44;;;;;;;14.27;7.13;;;;;;;;;;4952866;28;20028;-78
2022/08/29 06:12:13;;;;;;;11.35;7.38;;;;;;;;;;4953913;28;20102;-78
2022/08/29 06:14:40;;;;;;;17.63;7.72;;;;;;;;;;4953811;28;20039;-77
2022/08/29 06:17:07;;;;;;;16.02;8.00;;;;;;;;;;4954088;29;20036;-74
2022/08/29 06:19:36;;;;;;;23.90;8.68;;;;;;;;;;4953958;29;20054;-74
2022/08/29 06:22:02;;;;;;;20.38;8.05;;;;;;;;;;4953739;28;20115;-73
2022/08/29 06:24:32;;;;;;;78.88;14.00;;;;;;;;;;4954372;29;20534;-74
2022/08/29 06:26:59;;;;;;;28.95;8.07;;;;;;;;;;4953802;28;20035;-74
2022/08/29 06:29:25;;;;;;;19.55;8.48;;;;;;;;;;4954050;29;20027;-74
2022/08/29 06:31:52;;;;;;;19.88;8.23;;;;;;;;;;4954440;28;20456;-76
2022/08/29 06:34:18;;;;;;;15.25;7.18;;;;;;;;;;4954403;29;20046;-73
2022/08/29 06:36:44;;;;;;;24.63;8.00;;;;;;;;;;4954171;29;20027;-72
2022/08/29 06:39:10;;;;;;;15.18;6.68;;;;;;;;;;4953291;28;20063;-75
2022/08/29 06:41:38;;;;;;;16.27;7.88;;;;;;;;;;4953571;28;20114;-75
2022/08/29 06:44:06;;;;;;;17.23;7.55;;;;;;;;;;4954464;28;20039;-75
2022/08/29 06:46:35;;;;;;;15.25;7.68;;;;;;;;;;4957811;29;20467;-77
2022/08/29 06:49:04;;;;;;;15.43;7.63;;;;;;;;;;4940812;29;20047;-77
2022/08/29 06:51:31;;;;;;;23.42;8.00;;;;;;;;;;4940107;28;20035;-79
2022/08/29 06:53:59;;;;;;;15.18;7.05;;;;;;;;;;4957566;29;20440;-77
2022/08/29 06:56:25;;;;;;;13.73;7.32;;;;;;;;;;4957147;28;20678;-78
2022/08/29 06:58:51;;;;;;;20.02;7.95;;;;;;;;;;4957053;28;20043;-76
2022/08/29 07:01:19;;;;;;;16.13;7.63;;;;;;;;;;4956098;29;20062;-73
2022/08/29 07:03:45;;;;;;;11.77;6.80;;;;;;;;;;4955469;28;20505;-75
2022/08/29 07:06:12;;;;;;;16.80;7.55;;;;;;;;;;4955962;29;20046;-76
2022/08/29 07:08:38;;;;;;;17.60;7.22;;;;;;;;;;4954446;29;20047;-76
2022/08/29 07:11:04;;;;;;;16.05;6.78;;;;;;;;;;4951657;28;20023;-75
2022/08/29 07:13:30;;;;;;;19.98;7.35;;;;;;;;;;4955973;29;20043;-75
2022/08/29 07:15:56;;;;;;;15.15;6.03;;;;;;;;;;4956030;29;20027;-75
2022/08/29 07:18:22;;;;;;;10.73;6.63;;;;;;;;;;4955773;29;20370;-76
2022/08/29 07:20:49;;;;;;;19.63;7.05;;;;;;;;;;4957497;28;20023;-74
2022/08/29 07:23:15;;;;;;;15.73;6.85;;;;;;;;;;4952915;29;20536;-76
2022/08/29 07:25:41;;;;;;;13.30;7.30;;;;;;;;;;4954555;29;20453;-76
2022/08/29 07:28:06;;;;;;;16.13;6.97;;;;;;;;;;4954756;29;20058;-76
2022/08/29 07:30:32;;;;;;;15.20;6.82;;;;;;;;;;4954738;29;20070;-75
2022/08/29 07:32:59;;;;;;;16.80;6.55;;;;;;;;;;4954624;28;20094;-76
2022/08/29 07:35:25;;;;;;;15.55;7.57;;;;;;;;;;4955195;29;20050;-76
2022/08/29 07:37:54;;;;;;;15.30;5.85;;;;;;;;;;4970914;28;20427;-77
2022/08/29 07:40:21;;;;;;;11.45;5.80;;;;;;;;;;4976222;28;20043;-75
2022/08/29 07:42:47;;;;;;;9.38;5.70;;;;;;;;;;4975985;28;20042;-76
2022/08/29 07:45:13;;;;;;;17.80;6.20;;;;;;;;;;4975516;28;20489;-76
2022/08/29 07:47:39;;;;;;;14.43;6.18;;;;;;;;;;4976223;28;20047;-77
2022/08/29 07:50:08;;;;;;;18.98;6.65;;;;;;;;;;4976091;28;20371;-76
2022/08/29 07:52:34;;;;;;;15.18;5.78;;;;;;;;;;4976452;28;20418;-76
2022/08/29 07:55:00;;;;;;;12.95;5.22;;;;;;;;;;4975820;28;20457;-78
2022/08/29 07:57:27;;;;;;;15.38;5.50;;;;;;;;;;4975900;28;20062;-78
2022/08/29 07:59:52;;;;;;;11.65;5.00;;;;;;;;;;4976023;28;20482;-76
2022/08/29 08:02:18;;;;;;;15.15;5.43;;;;;;;;;;4975711;28;20050;-75
2022/08/29 08:04:44;;;;;;;11.25;5.13;;;;;;;;;;4967470;28;20095;-76
2022/08/29 08:07:12;;;;;;;17.95;5.80;;;;;;;;;;4955687;28;20037;-77
2022/08/29 08:09:38;;;;;;;14.10;4.90;;;;;;;;;;4975939;28;20039;-74
2022/08/29 08:12:05;;;;;;;13.52;5.28;;;;;;;;;;4976518;28;20414;-75
2022/08/29 08:14:32;;;;;;;12.85;5.40;;;;;;;;;;4976202;28;20035;-76
2022/08/29 08:16:59;;;;;;;13.48;5.97;;;;;;;;;;4975655;28;20031;-76
2022/08/29 08:19:25;;;;;;;16.52;5.82;;;;;;;;;;4975978;28;20038;-75
2022/08/29 08:21:52;;;;;;;13.27;5.45;;;;;;;;;;4975970;28;20113;-76
2022/08/29 08:24:18;;;;;;;13.85;5.65;;;;;;;;;;4958316;28;20372;-76
2022/08/29 08:26:44;;;;;;;13.27;5.28;;;;;;;;;;4956141;29;20034;-79
2022/08/29 08:29:11;;;;;;;9.45;4.43;;;;;;;;;;4956640;29;20027;-77
2022/08/29 08:31:45;;;;;;;14.30;5.38;;;;;;;;;;4955041;28;20042;-77
2022/08/29 08:34:14;;;;;;;10.20;5.25;;;;;;;;;;4955609;28;20035;-77
2022/08/29 08:36:41;;;;;;;15.32;5.20;;;;;;;;;;4968946;28;20142;-78
2022/08/29 08:39:09;;;;;;;16.10;5.43;;;;;;;;;;4967008;28;20042;-76
2022/08/29 08:42:02;;;;;;;18.58;5.75;;;;;;;;;;4954134;28;20075;-76
2022/08/29 08:45:08;;;;;;;12.10;5.35;;;;;;;;;;4956373;28;20430;-76
2022/08/29 08:47:41;;;;;;;13.82;4.82;;;;;;;;;;4970451;28;20055;-76
2022/08/29 08:50:17;;;;;;;13.13;4.75;;;;;;;;;;4948493;28;20039;-76
2022/08/29 08:52:51;;;;;;;17.00;5.55;;;;;;;;;;4973204;28;20385;-76
2022/08/29 08:55:23;;;;;;;10.57;5.15;;;;;;;;;;4956109;28;20061;-78
2022/08/29 08:58:14;;;;;;;13.05;5.60;;;;;;;;;;4972871;28;20390;-77
2022/08/29 09:03:58;;;;;;;18.83;5.10;;;;;;;;;;4952611;28;20031;-78
2022/08/29 09:06:52;;;;;;;12.32;5.50;;;;;;;;;;4942218;28;20050;-78
2022/08/29 09:09:30;;;;;;;16.27;4.93;;;;;;;;;;4956131;28;20031;-78
2022/08/29 09:12:01;;;;;;;12.27;4.90;;;;;;;;;;4956386;28;20039;-79
2022/08/29 09:14:43;;;;;;;13.27;4.18;;;;;;;;;;4973410;28;20038;-77
2022/08/29 09:17:22;;;;;;;17.23;5.13;;;;;;;;;;4956023;28;20113;-81
2022/08/29 09:19:49;;;;;;;14.30;4.70;;;;;;;;;;4973079;28;20027;-77
2022/08/29 09:22:22;;;;;;;11.90;4.82;;;;;;;;;;4973129;28;20022;-77
2022/08/29 09:25:01;;;;;;;15.73;5.28;;;;;;;;;;4973003;28;20035;-79
2022/08/29 09:27:30;;;;;;;12.75;5.30;;;;;;;;;;4972773;28;20509;-77
2022/08/29 09:30:06;;;;;;;13.35;4.85;;;;;;;;;;4953859;28;20030;-79
2022/08/29 09:32:32;;;;;;;12.82;5.30;;;;;;;;;;4971865;28;20039;-78
2022/08/29 09:34:58;;;;;;;12.15;5.28;;;;;;;;;;4972424;28;20162;-78
2022/08/29 09:37:33;;;;;;;11.27;5.28;;;;;;;;;;4972503;28;20094;-77
2022/08/29 09:40:00;;;;;;;12.27;5.38;;;;;;;;;;4957617;28;20050;-78
2022/08/29 09:42:38;;;;;;;7.97;4.97;;;;;;;;;;4934177;29;20027;-79
2022/08/29 09:45:22;;;;;;;14.13;5.30;;;;;;;;;;4952455;29;20027;-76
2022/08/29 09:47:48;;;;;;;16.05;5.50;;;;;;;;;;4954151;29;20455;-78
2022/08/29 09:50:24;;;;;;;14.80;5.35;;;;;;;;;;4954029;29;20154;-78
2022/08/29 09:53:01;;;;;;;14.32;5.40;;;;;;;;;;4954851;28;20031;-77
2022/08/29 09:55:33;;;;;;;11.93;5.55;;;;;;;;;;4954559;29;20031;-78
2022/08/29 09:58:06;;;;;;;10.43;5.13;;;;;;;;;;4916303;29;20076;-81
2022/08/29 10:00:42;;;;;;;14.10;5.40;;;;;;;;;;4916105;29;20039;-79
2022/08/29 10:03:20;;;;;;;10.60;4.40;;;;;;;;;;4915025;29;20039;-77
2022/08/29 10:05:46;;;;;;;14.50;4.80;;;;;;;;;;4915074;29;20036;-77
2022/08/29 10:08:36;;;;;;;19.35;4.85;;;;;;;;;;4915120;29;20534;-78
2022/08/29 10:11:06;;;;;;;12.93;5.63;;;;;;;;;;4914772;29;20096;-78
2022/08/29 10:13:48;;;;;;;17.45;6.00;;;;;;;;;;4915783;29;20043;-78
2022/08/29 10:16:55;;;;;;;10.18;5.35;;;;;;;;;;4915780;29;20088;-77
2022/08/29 10:19:26;;;;;;;17.15;4.90;;;;;;;;;;4915436;29;20411;-77
2022/08/29 10:22:03;;;;;;;9.27;4.90;;;;;;;;;;4916027;29;20044;-78
2022/08/29 10:24:32;;;;;;;10.93;4.50;;;;;;;;;;4916151;29;20062;-76
2022/08/29 10:27:28;;;;;;;12.75;5.05;;;;;;;;;;4916171;29;20028;-79
2022/08/29 10:30:06;;;;;;;11.23;4.82;;;;;;;;;;4914650;29;20036;-78
2022/08/29 10:32:35;;;;;;;9.82;4.30;;;;;;;;;;4915749;29;20068;-79
2022/08/29 10:35:26;;;;;;;13.10;4.50;;;;;;;;;;4915899;29;20024;-81
2022/08/29 10:38:06;;;;;;;10.77;5.05;;;;;;;;;;4915759;29;20044;-77
2022/08/29 10:40:47;;;;;;;13.75;4.40;;;;;;;;;;4916046;29;20072;-76
2022/08/29 10:43:27;;;;;;;12.93;4.25;;;;;;;;;;4915822;29;20527;-77
2022/08/29 10:46:03;;;;;;;9.88;4.35;;;;;;;;;;4916025;29;20467;-75
2022/08/29 10:48:58;;;;;;;9.63;4.65;;;;;;;;;;4915860;29;20036;-77
2022/08/29 10:51:45;;;;;;;10.63;4.45;;;;;;;;;;4915347;29;20043;-77
2022/08/29 10:54:20;;;;;;;11.52;4.47;;;;;;;;;;4915276;29;20036;-77
2022/08/29 10:56:47;;;;;;;13.15;4.68;;;;;;;;;;4935804;29;20405;-77
2022/08/29 10:59:42;;;;;;;14.02;5.13;;;;;;;;;;4953976;29;20043;-77
2022/08/29 11:02:34;;;;;;;15.32;5.60;;;;;;;;;;4954011;28;20050;-76
2022/08/29 11:05:09;;;;;;;11.38;4.07;;;;;;;;;;4953987;29;20508;-77
2022/08/29 11:07:57;;;;;;;11.63;4.40;;;;;;;;;;4954210;29;20106;-78
2022/08/29 11:10:31;;;;;;;12.32;4.30;;;;;;;;;;4936919;29;20046;-78
2022/08/29 11:13:10;;;;;;;7.82;3.92;;;;;;;;;;4953863;28;20038;-77
2022/08/29 11:16:03;;;;;;;12.38;4.38;;;;;;;;;;4952358;29;20027;-77
2022/08/29 11:18:37;;;;;;;13.38;4.72;;;;;;;;;;4933209;29;20047;-77
2022/08/29 11:21:25;;;;;;;9.65;4.28;;;;;;;;;;4934923;29;20035;-76
2022/08/29 11:23:51;;;;;;;14.60;4.60;;;;;;;;;;4953682;28;20028;-75
2022/08/29 11:26:36;;;;;;;10.40;4.30;;;;;;;;;;4954957;28;20035;-77
2022/08/29 11:29:25;;;;;;;12.30;4.50;;;;;;;;;;4952896;28;20083;-79
2022/08/29 11:32:13;;;;;;;13.60;4.90;;;;;;;;;;4939387;29;20059;-79
2022/08/29 11:35:08;;;;;;;12.35;4.57;;;;;;;;;;4966745;28;20346;-78
2022/08/29 11:38:17;;;;;;;18.33;4.32;;;;;;;;;;4937307;29;20036;-78
2022/08/29 11:41:07;;;;;;;10.32;4.38;;;;;;;;;;4937559;29;20387;-77
2022/08/29 11:43:44;;;;;;;13.48;5.60;;;;;;;;;;4937255;29;20751;-77
2022/08/29 11:46:12;;;;;;;10.38;4.55;;;;;;;;;;4920952;28;20543;-77
2022/08/29 11:48:51;;;;;;;10.20;3.80;;;;;;;;;;4956591;29;20031;-76
2022/08/29 11:51:36;;;;;;;12.88;4.00;;;;;;;;;;4956632;29;20047;-76
2022/08/29 11:54:34;;;;;;;11.07;4.25;;;;;;;;;;4956488;29;20481;-76
2022/08/29 11:57:00;;;;;;;11.65;3.80;;;;;;;;;;4913713;29;20082;-76
2022/08/29 11:59:47;;;;;;;16.85;4.22;;;;;;;;;;4966911;28;20071;-77
2022/08/29 12:02:31;;;;;;;10.82;4.35;;;;;;;;;;4975511;28;20137;-79
2022/08/29 12:04:58;;;;;;;14.85;4.13;;;;;;;;;;4958337;28;20500;-78
2022/08/29 12:07:49;;;;;;;11.73;4.60;;;;;;;;;;4947666;29;20051;-78
2022/08/29 12:10:22;;;;;;;10.77;4.10;;;;;;;;;;4938053;29;20066;-76
2022/08/29 12:12:58;;;;;;;13.40;4.00;;;;;;;;;;4955477;28;20590;-78
2022/08/29 12:15:33;;;;;;;10.85;4.13;;;;;;;;;;4956148;29;20517;-77
2022/08/29 12:18:01;;;;;;;12.02;4.32;;;;;;;;;;4962766;28;20503;-73
2022/08/29 12:20:30;;;;;;;14.30;4.40;;;;;;;;;;4938646;29;20023;-74
2022/08/29 12:23:02;;;;;;;10.77;4.07;;;;;;;;;;4962008;28;20086;-74
2022/08/29 12:25:45;;;;;;;13.43;4.07;;;;;;;;;;4955159;28;20359;-77
2022/08/29 12:28:20;;;;;;;10.38;3.80;;;;;;;;;;4937702;29;20494;-76
2022/08/29 12:31:01;;;;;;;12.95;3.92;;;;;;;;;;4955628;29;20035;-77
2022/08/29 12:33:53;;;;;;;12.55;3.75;;;;;;;;;;4947166;28;20058;-76
2022/08/29 12:36:46;;;;;;;12.23;3.88;;;;;;;;;;4962192;28;20352;-82
2022/08/29 12:39:33;;;;;;;9.95;4.07;;;;;;;;;;4955309;28;20027;-76
2022/08/29 12:42:12;;;;;;;10.00;3.58;;;;;;;;;;4936384;29;20106;-77
2022/08/29 12:44:44;;;;;;;10.70;3.45;;;;;;;;;;4936906;29;20639;-80
2022/08/29 12:47:31;;;;;;;13.85;4.40;;;;;;;;;;4936502;29;20478;-75
2022/08/29 12:50:26;;;;;;;14.55;4.30;;;;;;;;;;4942978;28;20116;-77
2022/08/29 12:53:02;;;;;;;9.18;3.65;;;;;;;;;;4947444;28;20051;-77
2022/08/29 12:55:34;;;;;;;14.77;3.50;;;;;;;;;;4970004;28;20038;-80
2022/08/29 12:58:00;;;;;;;11.85;4.05;;;;;;;;;;4955716;29;20038;-77
2022/08/29 13:00:29;;;;;;;8.93;4.20;;;;;;;;;;4953817;29;20042;-76
2022/08/29 13:03:17;;;;;;;9.65;4.03;;;;;;;;;;4938307;29;20616;-75
2022/08/29 13:05:44;;;;;;;13.55;4.22;;;;;;;;;;4953310;29;20086;-74
2022/08/29 13:08:35;;;;;;;10.63;3.90;;;;;;;;;;4954535;29;20034;-75
2022/08/29 13:11:06;;;;;;;11.93;3.80;;;;;;;;;;4966750;28;20026;-75
2022/08/29 13:13:34;;;;;;;12.50;4.07;;;;;;;;;;4973634;28;20038;-75
2022/08/29 13:16:04;;;;;;;11.90;3.72;;;;;;;;;;4972844;28;20034;-77
2022/08/29 13:18:31;;;;;;;11.95;3.72;;;;;;;;;;4974402;28;20159;-75
2022/08/29 13:21:05;;;;;;;12.43;3.63;;;;;;;;;;4969372;28;20433;-78
2022/08/29 13:23:35;;;;;;;12.55;3.88;;;;;;;;;;4954821;28;20035;-76
2022/08/29 13:26:09;;;;;;;11.73;4.43;;;;;;;;;;4955079;29;20086;-73
2022/08/29 13:28:44;;;;;;;16.92;4.10;;;;;;;;;;4954798;28;20118;-76
2022/08/29 13:31:13;;;;;;;13.95;4.22;;;;;;;;;;4956973;28;20090;-78
2022/08/29 13:33:44;;;;;;;14.48;4.38;;;;;;;;;;4957808;28;20026;-76
2022/08/29 13:36:39;;;;;;;10.35;4.55;;;;;;;;;;4974457;28;20034;-79
2022/08/29 13:39:16;;;;;;;14.07;4.20;;;;;;;;;;4974362;28;20035;-81
2022/08/29 13:42:01;;;;;;;15.10;4.47;;;;;;;;;;4969647;28;20039;-80
2022/08/29 13:44:26;;;;;;;13.50;3.85;;;;;;;;;;4957482;28;20031;-78
2022/08/29 13:46:58;;;;;;;17.58;4.15;;;;;;;;;;4936762;29;20493;-76
2022/08/29 13:49:27;;;;;;;12.95;4.60;;;;;;;;;;4953309;29;20434;-78
2022/08/29 13:51:53;;;;;;;11.15;4.25;;;;;;;;;;4953693;29;20071;-78
2022/08/29 13:54:19;;;;;;;11.48;4.45;;;;;;;;;;4963731;28;20122;-79
2022/08/29 13:56:56;;;;;;;14.93;4.22;;;;;;;;;;4954843;28;20129;-78
2022/08/29 13:59:24;;;;;;;12.93;3.90;;;;;;;;;;4972905;28;20059;-76
2022/08/29 14:01:51;;;;;;;12.63;3.97;;;;;;;;;;4973701;28;20445;-78
2022/08/29 14:04:17;;;;;;;14.38;4.43;;;;;;;;;;4972409;28;20043;-77
2022/08/29 14:06:44;;;;;;;15.00;4.65;;;;;;;;;;4972866;28;20031;-77
2022/08/29 14:09:16;;;;;;;14.60;4.68;;;;;;;;;;4973650;28;20114;-77
2022/08/29 14:11:42;;;;;;;16.20;4.10;;;;;;;;;;4972647;28;20098;-76
2022/08/29 14:14:08;;;;;;;12.13;4.00;;;;;;;;;;4954816;28;20038;-77
2022/08/29 14:16:33;;;;;;;13.73;4.13;;;;;;;;;;4954452;29;20032;-77
2022/08/29 14:18:59;;;;;;;17.33;4.45;;;;;;;;;;4958538;28;20051;-77
2022/08/29 14:21:25;;;;;;;19.60;4.38;;;;;;;;;;4973262;28;20039;-78
2022/08/29 14:23:52;;;;;;;13.02;4.22;;;;;;;;;;4973623;28;20363;-76
2022/08/29 14:26:19;;;;;;;13.25;4.20;;;;;;;;;;4973481;28;20041;-77
2022/08/29 14:28:45;;;;;;;12.15;4.38;;;;;;;;;;4973399;28;20034;-77
2022/08/29 14:31:11;;;;;;;19.55;4.68;;;;;;;;;;4971975;28;20532;-74
2022/08/29 14:33:37;;;;;;;13.02;4.07;;;;;;;;;;4953663;28;20023;-76
2022/08/29 14:36:04;;;;;;;12.90;5.03;;;;;;;;;;4954299;29;20122;-75
2022/08/29 14:38:30;;;;;;;18.63;4.25;;;;;;;;;;4954054;29;20106;-76
2022/08/29 14:40:56;;;;;;;24.23;4.68;;;;;;;;;;4954124;29;20042;-77
2022/08/29 14:43:22;;;;;;;17.42;4.43;;;;;;;;;;4954062;28;20023;-76
2022/08/29 14:45:48;;;;;;;15.85;4.03;;;;;;;;;;4953422;28;20039;-76
2022/08/29 14:48:14;;;;;;;21.98;4.95;;;;;;;;;;4953780;29;20041;-78
2022/08/29 14:50:40;;;;;;;19.17;4.60;;;;;;;;;;4936922;29;20573;-77
2022/08/29 14:53:06;;;;;;;20.50;5.50;;;;;;;;;;4953756;28;20146;-77
2022/08/29 14:55:32;;;;;;;15.32;4.75;;;;;;;;;;4953745;29;20040;-75
2022/08/29 14:57:59;;;;;;;22.10;5.20;;;;;;;;;;4953426;28;20036;-78
2022/08/29 15:00:27;;;;;;;18.17;4.65;;;;;;;;;;4936436;29;20039;-77